TimePDT,TemperatureF,Dew PointF,Humidity,Sea Level PressureIn,VisibilityMPH,Wind Direction,Wind SpeedMPH,Gust SpeedMPH,PrecipitationIn,Events,Conditions,WindDirDegrees,DateUTC
12:53 AM,71.1,51.1,49,29.84,10.0,Variable,3.5,-,N/A,,Clear,0,2013-08-23 07:53:00
1:53 AM,66.9,53.1,61,29.86,10.0,South,6.9,-,N/A,,Mostly Cloudy,180,2013-08-23 08:53:00
2:53 AM,64.9,55.0,70,29.87,10.0,South,8.1,-,N/A,,Clear,180,2013-08-23 09:53:00
3:37 AM,64.4,55.4,73,29.88,10.0,South,8.1,-,N/A,,Mostly Cloudy,170,2013-08-23 10:37:00
3:53 AM,64.0,55.0,73,29.88,10.0,South,3.5,-,N/A,,Mostly Cloudy,180,2013-08-23 10:53:00
4:13 AM,62.6,55.4,77,29.87,10.0,South,5.8,-,N/A,,Scattered Clouds,170,2013-08-23 11:13:00
4:53 AM,63.0,55.9,78,29.87,10.0,SSE,8.1,-,N/A,,Mostly Cloudy,160,2013-08-23 11:53:00
5:13 AM,64.4,55.4,73,29.87,10.0,SSE,6.9,-,N/A,,Mostly Cloudy,150,2013-08-23 12:13:00
5:53 AM,64.0,55.9,75,29.87,10.0,SSE,8.1,-,N/A,,Mostly Cloudy,160,2013-08-23 12:53:00
6:53 AM,64.0,55.0,73,29.87,10.0,South,6.9,-,N/A,,Overcast,180,2013-08-23 13:53:00
7:53 AM,64.9,55.0,70,29.88,10.0,South,10.4,-,N/A,,Overcast,170,2013-08-23 14:53:00
8:53 AM,66.0,55.0,68,29.89,10.0,South,8.1,-,N/A,,Overcast,180,2013-08-23 15:53:00
9:53 AM,66.9,54.0,63,29.90,10.0,South,11.5,17.3,N/A,,Mostly Cloudy,170,2013-08-23 16:53:00
10:53 AM,68.0,54.0,61,29.90,10.0,South,8.1,-,N/A,,Overcast,190,2013-08-23 17:53:00
11:53 AM,69.1,54.0,58,29.90,10.0,SSW,6.9,-,N/A,,Overcast,200,2013-08-23 18:53:00
11:58 AM,69.8,53.6,56,29.89,10.0,SSW,9.2,-,N/A,,Overcast,210,2013-08-23 18:58:00
12:53 PM,72.0,54.0,53,29.89,10.0,South,6.9,-,N/A,,Mostly Cloudy,190,2013-08-23 19:53:00
1:53 PM,75.0,54.0,48,29.89,10.0,SSE,11.5,17.3,N/A,,Mostly Cloudy,150,2013-08-23 20:53:00
2:53 PM,75.9,54.0,46,29.89,10.0,SSW,10.4,19.6,N/A,,Mostly Cloudy,210,2013-08-23 21:53:00
3:53 PM,73.9,53.1,48,29.88,10.0,South,8.1,17.3,N/A,,Scattered Clouds,190,2013-08-23 22:53:00
4:53 PM,75.9,53.1,45,29.88,10.0,Variable,6.9,-,N/A,,Scattered Clouds,0,2013-08-23 23:53:00
5:53 PM,75.0,53.1,46,29.87,10.0,SSW,8.1,-,N/A,,Mostly Cloudy,210,2013-08-24 00:53:00
6:53 PM,73.0,53.1,49,29.87,10.0,Variable,4.6,-,N/A,,Mostly Cloudy,0,2013-08-24 01:53:00
7:53 PM,70.0,52.0,53,29.87,10.0,WSW,5.8,-,N/A,,Mostly Cloudy,240,2013-08-24 02:53:00
8:53 PM,69.1,53.1,57,29.88,10.0,WSW,4.6,-,N/A,,Mostly Cloudy,250,2013-08-24 03:53:00
9:53 PM,66.9,54.0,63,29.89,10.0,South,5.8,-,N/A,,Mostly Cloudy,180,2013-08-24 04:53:00
10:53 PM,64.9,55.0,70,29.89,10.0,SSE,5.8,-,N/A,,Scattered Clouds,160,2013-08-24 05:53:00
11:53 PM,64.9,55.9,73,29.89,10.0,South,5.8,-,N/A,,Mostly Cloudy,170,2013-08-24 06:53:00